Pagrindinis puslapis
METAR-TAF:

METAR-TAF

Oro uostai :

Palembangas, Indonezija

platuma: 02-54S, ilguma: 104-42E, Aukštis: 10 m

Dabartinis oras

Ataskaita buvo paskelbta 1 valandą ir 6 minutes, ne 11:00 UTC
Vėjas 9 kt iš Rytų/Šiaurės Rytų
Temperatūra 28°C
Drėgmė 79%
Slėgis 1007 hPa
Matomumas: 3000 m
Su prošvaistėmis ne aukštis 1000 ft
lietus

METAR: WIPP 161100Z 06009KT 3000 -RA BKN010 28/24 Q1007

Laikas: 19:06 (12:06 UTC)

Prognozė

Ataskaita buvo paskelbta 1 valandą ir 6 minutes, ne 11:00 UTC
Prognozė galioja nuo 16 metu 12 UTC su 17 metu 12 UTC
Vėjas 6 kt iš Rytų
Matomumas: 6000 m
Išsisklaidę debesys ne aukštis 1000 ft
Laikinai
nuo 16 metu 12 UTC su 16 metu 15 UTC
Matomumas: 3000 m
Su prošvaistėmis ne aukštis 1000 ft
lietus
Laikinai
nuo 16 metu 22 UTC su 17 metu 01 UTC
Vėjas 2 kt iš Pietų/Pietvakarių
Matomumas: 0800 m
dūmai

TAF: WIPP 161100Z 1612/1712 10006KT 6000 SCT010 TEMPO 1612/1615 3000 RA BKN010 TEMPO 1622/1701 20002KT 0800 FU

Orai ataskaitas ir orų prognozės (METAR, TAF).

turimą stotys yra geltonos ir raudonos taškus žemėlapyje.

Perkelti pele per norėdami pamatyti stoties vardą.

Tada spustelėkite, norėdami matyti oro stebėjimo ir prognozės.

Norėdami pakeisti žemėlapį: spustelėkite ant žalios mygtukų su juodo kryžiaus žemyn,; žalią mygtuką su brūkšneliu, jei norite nutolinti; arba žalių rodyklių gretimoms žemėlapius.


METAR-TAF: